Time;durP1;ratioP1;P1;durP2;ratioP2;P2;SDS_P1;SDS_P2;PMS_P1;PMS_P2;Temp;Humidity;BMP_temperature;BMP_pressure;BME280_temperature;BME280_humidity;BME280_pressure;Samples;Min_cycle;Max_cycle;Signal;HPM_P1;HPM_P2
2023/12/25 00:01:27;;;;;;;23.07;10.70;;;2.90;99.90;;;;;;5046182;28;20279;-72
2023/12/25 00:03:52;;;;;;;24.00;10.57;;;3.00;99.90;;;;;;5054802;28;20666;-72
2023/12/25 00:06:19;;;;;;;20.67;10.30;;;2.90;99.90;;;;;;5065844;28;20416;-72
2023/12/25 00:08:44;;;;;;;21.83;11.40;;;2.90;99.90;;;;;;5041084;28;20029;-72
2023/12/25 00:11:10;;;;;;;19.97;11.60;;;2.90;99.90;;;;;;5028585;28;20049;-72
2023/12/25 00:13:36;;;;;;;18.63;9.82;;;2.90;99.90;;;;;;5040024;28;20434;-72
2023/12/25 00:16:02;;;;;;;18.98;10.23;;;2.90;99.90;;;;;;5060428;28;20097;-72
2023/12/25 00:18:27;;;;;;;20.33;10.27;;;2.90;99.90;;;;;;5067799;28;20120;-72
2023/12/25 00:20:53;;;;;;;15.93;9.97;;;2.90;99.90;;;;;;5069664;28;20036;-71
2023/12/25 00:23:18;;;;;;;21.77;10.57;;;2.90;99.90;;;;;;5054385;28;20401;-71
2023/12/25 00:25:44;;;;;;;18.43;10.20;;;2.80;99.90;;;;;;5049480;28;20546;-72
2023/12/25 00:28:09;;;;;;;23.07;11.37;;;2.90;99.90;;;;;;5050191;28;20064;-71
2023/12/25 00:30:35;;;;;;;24.83;12.03;;;2.80;99.90;;;;;;5049294;28;20025;-72
2023/12/25 00:33:01;;;;;;;17.90;10.60;;;2.80;99.90;;;;;;5049059;28;20032;-72
2023/12/25 00:35:26;;;;;;;21.30;11.73;;;2.80;99.90;;;;;;5049787;28;20417;-72
2023/12/25 00:37:52;;;;;;;23.00;10.53;;;2.70;99.90;;;;;;5049637;28;20108;-72
2023/12/25 00:40:17;;;;;;;22.20;11.03;;;2.70;99.90;;;;;;5053414;28;20840;-71
2023/12/25 00:42:43;;;;;;;24.73;10.20;;;2.70;99.90;;;;;;5084969;28;21201;-71
2023/12/25 00:45:09;;;;;;;24.95;11.65;;;2.80;99.90;;;;;;5069599;28;20091;-72
2023/12/25 00:47:34;;;;;;;25.45;11.38;;;2.70;99.90;;;;;;5069386;28;20036;-72
2023/12/25 00:50:00;;;;;;;25.10;11.70;;;2.60;99.90;;;;;;5069139;28;20025;-72
2023/12/25 00:52:26;;;;;;;25.40;10.87;;;2.60;99.90;;;;;;5068926;28;20273;-72
2023/12/25 00:54:51;;;;;;;24.50;10.70;;;2.60;99.90;;;;;;5068514;28;20105;-72
2023/12/25 00:57:17;;;;;;;21.87;11.77;;;2.50;99.90;;;;;;5068956;28;20046;-71
2023/12/25 00:59:42;;;;;;;22.73;12.00;;;2.50;99.90;;;;;;5069342;28;20123;-71
2023/12/25 01:02:08;;;;;;;23.60;12.37;;;2.50;99.90;;;;;;5069244;28;20032;-71
2023/12/25 01:04:33;;;;;;;20.00;11.33;;;2.60;99.90;;;;;;5053453;28;20888;-71
2023/12/25 01:06:59;;;;;;;20.20;10.40;;;2.60;99.90;;;;;;5049093;28;20063;-72
2023/12/25 01:09:25;;;;;;;23.40;11.70;;;2.70;99.90;;;;;;5048869;28;20067;-71
2023/12/25 01:11:50;;;;;;;21.80;12.20;;;2.60;99.90;;;;;;5048916;28;20107;-71
2023/12/25 01:14:17;;;;;;;26.30;11.73;;;2.60;99.90;;;;;;5048873;28;20029;-72
2023/12/25 01:16:42;;;;;;;;;;;2.60;99.90;;;;;;5049562;28;20134;-72
2023/12/25 01:19:08;;;;;;;28.25;12.70;;;2.50;99.90;;;;;;5049295;28;20331;-72
2023/12/25 01:21:34;;;;;;;22.17;12.63;;;2.40;99.90;;;;;;5048573;28;20029;-71
2023/12/25 01:23:59;;;;;;;24.27;12.43;;;2.30;99.90;;;;;;5048529;28;20280;-72
2023/12/25 01:26:25;;;;;;;27.60;14.23;;;2.30;99.90;;;;;;5048169;28;20045;-72
2023/12/25 01:28:51;;;;;;;30.55;15.07;;;2.20;99.90;;;;;;5048437;28;20119;-72
2023/12/25 01:31:17;;;;;;;28.98;13.73;;;2.20;99.90;;;;;;5048015;28;20064;-72
2023/12/25 01:33:42;;;;;;;31.75;14.93;;;2.10;99.90;;;;;;5048712;28;20032;-73
2023/12/25 01:36:08;;;;;;;25.40;14.90;;;2.10;99.90;;;;;;5048466;28;20547;-72
2023/12/25 01:38:34;;;;;;;27.33;14.63;;;2.10;99.90;;;;;;5047042;28;20032;-72
2023/12/25 01:40:59;;;;;;;25.87;14.33;;;2.00;99.90;;;;;;5047912;28;20801;-72
2023/12/25 01:43:25;;;;;;;30.27;15.37;;;2.00;99.90;;;;;;5047921;28;20060;-72
2023/12/25 01:45:50;;;;;;;33.23;15.47;;;1.90;99.90;;;;;;5048130;28;20068;-72
2023/12/25 01:48:16;;;;;;;33.80;15.67;;;1.90;99.90;;;;;;5048215;28;20483;-72
2023/12/25 01:50:43;;;;;;;28.30;15.23;;;1.90;99.90;;;;;;5048783;28;20278;-72
2023/12/25 01:53:08;;;;;;;27.85;15.52;;;1.90;99.90;;;;;;5048361;28;20028;-72
2023/12/25 01:55:35;;;;;;;25.83;13.93;;;1.80;99.90;;;;;;5048087;28;20405;-72
2023/12/25 01:58:01;;;;;;;30.17;15.98;;;1.80;99.90;;;;;;5047992;28;20037;-72
2023/12/25 02:00:26;;;;;;;29.23;15.10;;;1.80;99.90;;;;;;5048165;28;20036;-72
2023/12/25 02:02:52;;;;;;;27.83;14.97;;;1.80;99.90;;;;;;5046707;28;20037;-72
2023/12/25 02:05:18;;;;;;;26.87;14.80;;;1.70;99.90;;;;;;5050704;28;20433;-72
2023/12/25 02:07:45;;;;;;;28.13;14.13;;;1.70;99.90;;;;;;5048249;28;20275;-71
2023/12/25 02:10:11;;;;;;;25.13;13.23;;;1.70;99.90;;;;;;5048121;28;20033;-72
2023/12/25 02:12:37;;;;;;;24.43;13.97;;;1.70;99.90;;;;;;5047392;28;20217;-72
2023/12/25 02:15:06;;;;;;;25.33;13.15;;;1.70;99.90;;;;;;5029252;28;20056;-71
2023/12/25 02:17:32;;;;;;;24.02;12.38;;;1.70;99.90;;;;;;5028409;28;20033;-71
2023/12/25 02:19:58;;;;;;;25.65;13.30;;;1.70;99.90;;;;;;5028041;28;20407;-70
2023/12/25 02:22:24;;;;;;;21.70;11.18;;;1.70;99.90;;;;;;5028232;28;20183;-71
2023/12/25 02:25:02;;;;;;;24.67;11.13;;;1.70;99.90;;;;;;5040721;28;20104;-71
2023/12/25 02:27:29;;;;;;;24.80;10.82;;;1.70;99.90;;;;;;5067905;28;20298;-72
2023/12/25 02:29:54;;;;;;;24.45;11.45;;;1.70;99.90;;;;;;5068005;28;20104;-71
2023/12/25 02:32:20;;;;;;;21.75;9.60;;;1.70;99.90;;;;;;5068324;28;20936;-71
2023/12/25 02:34:47;;;;;;;19.73;10.20;;;1.70;99.90;;;;;;5067962;28;20086;-71
2023/12/25 02:37:13;;;;;;;19.90;9.75;;;1.70;99.90;;;;;;5067544;28;20112;-71
2023/12/25 02:39:39;;;;;;;;;;;1.60;99.90;;;;;;5067831;28;20036;-71
2023/12/25 02:42:04;;;;;;;19.48;9.65;;;1.60;99.90;;;;;;5067500;28;19909;-71
2023/12/25 02:44:30;;;;;;;15.63;9.30;;;1.70;99.90;;;;;;5067552;28;20106;-71
2023/12/25 02:46:56;;;;;;;15.60;8.47;;;1.60;99.90;;;;;;5067638;28;20103;-71
2023/12/25 02:49:21;;;;;;;19.73;10.73;;;1.60;99.90;;;;;;5067626;28;20503;-71
2023/12/25 02:51:47;;;;;;;16.83;8.50;;;1.70;99.90;;;;;;5067596;28;20105;-71
2023/12/25 02:54:13;;;;;;;17.92;9.10;;;1.60;99.90;;;;;;5067023;28;20516;-71
2023/12/25 02:56:39;;;;;;;15.30;8.87;;;1.60;99.90;;;;;;5067300;28;20074;-71
2023/12/25 02:59:05;;;;;;;14.25;8.48;;;1.60;99.90;;;;;;5067465;28;20492;-71
2023/12/25 03:01:30;;;;;;;17.07;8.70;;;1.60;99.90;;;;;;5067342;28;20041;-71
2023/12/25 03:03:56;;;;;;;16.73;8.57;;;1.60;99.90;;;;;;5057122;28;20056;-72
2023/12/25 03:06:21;;;;;;;20.47;8.30;;;1.60;99.90;;;;;;5047187;28;20040;-71
2023/12/25 03:08:47;;;;;;;17.73;8.83;;;1.60;99.90;;;;;;5047089;28;20037;-71
2023/12/25 03:11:13;;;;;;;22.37;8.90;;;1.60;99.90;;;;;;5046701;28;20286;-71
2023/12/25 03:13:38;;;;;;;18.58;9.27;;;1.60;99.90;;;;;;5046955;28;20025;-71
2023/12/25 03:16:05;;;;;;;18.33;9.13;;;1.60;99.90;;;;;;5045903;28;20413;-71
2023/12/25 03:18:31;;;;;;;23.27;8.95;;;1.60;99.90;;;;;;5047059;28;20163;-72
2023/12/25 03:20:57;;;;;;;24.90;10.07;;;1.60;99.90;;;;;;5046738;28;20025;-71
2023/12/25 03:23:22;;;;;;;16.50;9.40;;;1.70;99.90;;;;;;5062225;28;20036;-71
2023/12/25 03:25:48;;;;;;;18.57;9.13;;;1.70;99.90;;;;;;5046520;28;20086;-71
2023/12/25 03:28:14;;;;;;;16.98;8.48;;;1.90;99.90;;;;;;5046404;28;20509;-71
2023/12/25 03:30:39;;;;;;;20.93;9.03;;;1.90;99.90;;;;;;5046765;28;20111;-71
2023/12/25 03:33:07;;;;;;;17.60;8.47;;;1.80;99.90;;;;;;5045753;28;20267;-71
2023/12/25 03:35:33;;;;;;;17.02;9.25;;;1.90;99.90;;;;;;5046688;28;20100;-71
2023/12/25 03:37:59;;;;;;;23.05;9.50;;;1.80;99.90;;;;;;5046883;28;20158;-72
2023/12/25 03:40:24;;;;;;;19.42;9.75;;;1.90;99.90;;;;;;5046374;28;20485;-71
2023/12/25 03:42:50;;;;;;;16.97;9.50;;;1.90;99.90;;;;;;5046887;28;20040;-71
2023/12/25 03:45:16;;;;;;;22.20;9.70;;;1.90;99.90;;;;;;5047348;28;20072;-71
2023/12/25 03:47:41;;;;;;;12.93;8.03;;;1.80;99.90;;;;;;5046917;28;20033;-71
2023/12/25 03:50:07;;;;;;;17.80;9.00;;;1.70;99.90;;;;;;5045226;28;20045;-71
2023/12/25 03:52:32;;;;;;;19.30;9.35;;;1.70;99.90;;;;;;5047211;28;20029;-71
2023/12/25 03:54:58;;;;;;;18.77;8.93;;;1.70;99.90;;;;;;5050741;28;20037;-72
2023/12/25 03:57:24;;;;;;;18.87;9.63;;;1.70;99.90;;;;;;5050746;28;20032;-71
2023/12/25 03:59:49;;;;;;;16.23;8.90;;;1.60;99.90;;;;;;5050837;28;20409;-72
2023/12/25 04:02:15;;;;;;;18.92;8.75;;;1.60;99.90;;;;;;5051530;28;20036;-72
2023/12/25 04:04:40;;;;;;;20.37;10.07;;;1.60;99.90;;;;;;5067164;28;20033;-71
2023/12/25 04:07:06;;;;;;;15.33;8.87;;;1.50;99.90;;;;;;5069343;28;20025;-72
2023/12/25 04:09:32;;;;;;;14.00;8.67;;;1.50;99.90;;;;;;5070166;28;20056;-72
2023/12/25 04:11:57;;;;;;;17.83;8.45;;;1.50;99.90;;;;;;5068649;28;20038;-71
2023/12/25 04:14:23;;;;;;;14.82;8.65;;;1.50;99.90;;;;;;5070130;28;20039;-71
2023/12/25 04:16:48;;;;;;;20.37;9.17;;;1.50;99.90;;;;;;5070281;28;20395;-71
2023/12/25 04:19:14;;;;;;;16.93;8.93;;;1.40;99.90;;;;;;5070176;28;20055;-71
2023/12/25 04:21:40;;;;;;;16.23;9.10;;;1.40;99.90;;;;;;5069883;28;20364;-71
2023/12/25 04:24:05;;;;;;;15.13;9.00;;;1.40;99.90;;;;;;5070191;28;20278;-71
2023/12/25 04:26:31;;;;;;;18.65;10.07;;;1.40;99.90;;;;;;5070145;28;20484;-71
2023/12/25 04:28:57;;;;;;;14.83;9.27;;;1.50;99.90;;;;;;5066492;28;20060;-71
2023/12/25 04:31:22;;;;;;;20.17;9.45;;;1.50;99.90;;;;;;5065760;28;20032;-71
2023/12/25 04:33:48;;;;;;;19.83;8.10;;;1.50;99.90;;;;;;5050212;28;20515;-72
2023/12/25 04:36:13;;;;;;;17.80;8.83;;;1.50;99.90;;;;;;5049910;28;20272;-71
2023/12/25 04:38:39;;;;;;;18.95;9.38;;;1.50;99.90;;;;;;5049847;28;20021;-71
2023/12/25 04:41:05;;;;;;;15.68;8.52;;;1.50;99.90;;;;;;5060441;28;20048;-70
2023/12/25 04:43:31;;;;;;;14.82;8.00;;;1.40;99.90;;;;;;5069859;28;20120;-71
2023/12/25 04:45:57;;;;;;;18.67;8.83;;;1.40;99.90;;;;;;5069762;28;20421;-71
2023/12/25 04:48:22;;;;;;;16.20;9.05;;;1.40;99.90;;;;;;5069506;28;20424;-70
2023/12/25 04:50:48;;;;;;;22.57;10.17;;;1.30;99.90;;;;;;5069451;28;20036;-71
2023/12/25 04:53:14;;;;;;;16.70;9.68;;;1.20;99.90;;;;;;5069259;28;20832;-70
2023/12/25 04:55:40;;;;;;;18.77;9.98;;;1.20;99.90;;;;;;5069569;28;20040;-70
2023/12/25 04:58:06;;;;;;;19.20;10.10;;;1.20;99.90;;;;;;5068994;28;20028;-71
2023/12/25 05:00:32;;;;;;;21.55;10.40;;;1.20;99.90;;;;;;5069395;28;20036;-71
2023/12/25 05:02:58;;;;;;;;;;;1.20;99.90;;;;;;5067300;28;20031;-71
2023/12/25 05:05:23;;;;;;;17.60;9.00;;;1.10;99.90;;;;;;5048106;28;19916;-71
2023/12/25 05:07:49;;;;;;;18.60;10.07;;;1.10;99.90;;;;;;5049533;28;20452;-72
2023/12/25 05:10:15;;;;;;;20.73;8.43;;;1.10;99.90;;;;;;5049676;28;20024;-71
2023/12/25 05:12:40;;;;;;;17.27;8.23;;;1.40;99.90;;;;;;5049243;28;20098;-72
2023/12/25 05:15:06;;;;;;;16.73;8.40;;;1.40;99.90;;;;;;5049569;28;20271;-70
2023/12/25 05:17:32;;;;;;;23.73;8.23;;;1.50;99.90;;;;;;5049261;28;20029;-71
2023/12/25 05:19:58;;;;;;;16.33;9.18;;;1.50;99.90;;;;;;5049380;28;20025;-71
2023/12/25 05:22:24;;;;;;;18.33;8.83;;;1.60;99.90;;;;;;5049089;28;20444;-70
2023/12/25 05:24:49;;;;;;;16.03;8.40;;;1.60;99.90;;;;;;5048488;28;20033;-71
2023/12/25 05:27:15;;;;;;;14.70;7.43;;;1.50;99.90;;;;;;5049131;28;20299;-71
2023/12/25 05:29:40;;;;;;;14.27;8.33;;;1.40;99.90;;;;;;5048411;28;20420;-71
2023/12/25 05:32:06;;;;;;;54.92;20.15;;;1.40;99.90;;;;;;5048641;28;20032;-70
2023/12/25 05:34:32;;;;;;;46.53;19.23;;;1.30;99.90;;;;;;5048332;28;20041;-71
2023/12/25 05:36:57;;;;;;;36.27;14.83;;;1.20;99.90;;;;;;5048593;28;20040;-71
2023/12/25 05:39:25;;;;;;;30.87;13.03;;;1.20;99.90;;;;;;5048936;28;20123;-71
2023/12/25 05:41:51;;;;;;;19.42;11.00;;;1.20;99.90;;;;;;5066123;28;20036;-71
2023/12/25 05:44:17;;;;;;;24.33;11.35;;;1.10;99.90;;;;;;5068395;28;20032;-72
2023/12/25 05:46:42;;;;;;;21.20;10.77;;;1.10;99.90;;;;;;5068128;28;20535;-71
2023/12/25 05:49:08;;;;;;;21.57;10.57;;;1.10;99.90;;;;;;5054538;28;20052;-71
2023/12/25 05:51:34;;;;;;;19.65;10.88;;;1.00;99.90;;;;;;5029752;28;20026;-72
2023/12/25 05:54:00;;;;;;;19.08;10.10;;;1.00;99.90;;;;;;5031527;28;20033;-71
2023/12/25 05:56:26;;;;;;;19.52;10.60;;;1.00;99.90;;;;;;5028531;28;20092;-71
2023/12/25 05:58:51;;;;;;;19.60;10.15;;;1.00;99.90;;;;;;5034978;28;20497;-71
2023/12/25 06:01:17;;;;;;;17.67;10.53;;;1.00;99.90;;;;;;5048677;28;20520;-72
2023/12/25 06:03:43;;;;;;;16.67;9.30;;;0.90;99.90;;;;;;5056537;28;20035;-70
2023/12/25 06:06:08;;;;;;;21.20;10.97;;;0.90;99.90;;;;;;5068096;28;20063;-71
2023/12/25 06:08:34;;;;;;;15.33;9.70;;;0.90;99.90;;;;;;5063843;28;20032;-71
2023/12/25 06:11:00;;;;;;;18.33;10.07;;;0.90;99.90;;;;;;5048406;28;20506;-71
2023/12/25 06:13:26;;;;;;;17.75;9.55;;;0.90;99.90;;;;;;5046053;28;20120;-72
2023/12/25 06:15:52;;;;;;;19.63;10.03;;;0.90;99.90;;;;;;5028170;28;20105;-71
2023/12/25 06:18:18;;;;;;;;;;;0.90;99.90;;;;;;5042596;28;20390;-70
2023/12/25 06:20:44;;;;;;;15.45;9.13;;;0.90;99.90;;;;;;5038552;28;20028;-70
2023/12/25 06:23:10;;;;;;;20.65;10.10;;;0.80;99.90;;;;;;5037989;28;20072;-69
2023/12/25 06:25:36;;;;;;;17.05;9.38;;;0.80;99.90;;;;;;5041397;28;20041;-69
2023/12/25 06:28:02;;;;;;;16.70;9.57;;;0.80;99.90;;;;;;5041072;28;20425;-68
2023/12/25 06:30:28;;;;;;;22.13;9.85;;;0.80;99.90;;;;;;5046196;28;20039;-69
2023/12/25 06:32:54;;;;;;;19.10;9.73;;;0.80;99.90;;;;;;5036623;28;20037;-70
2023/12/25 06:35:20;;;;;;;18.35;10.00;;;0.80;99.90;;;;;;5039005;28;20037;-69
2023/12/25 06:37:45;;;;;;;20.17;10.60;;;0.80;99.90;;;;;;5039163;28;20386;-69
2023/12/25 06:40:11;;;;;;;20.73;11.00;;;0.70;99.90;;;;;;5038363;28;20036;-69
2023/12/25 06:42:37;;;;;;;18.67;10.70;;;0.80;99.90;;;;;;5038096;28;20025;-70
2023/12/25 06:45:05;;;;;;;24.10;10.43;;;0.70;99.90;;;;;;5033829;28;20536;-67
2023/12/25 06:47:31;;;;;;;17.27;9.70;;;0.80;99.90;;;;;;5038652;28;20063;-69
2023/12/25 06:49:57;;;;;;;21.30;11.40;;;0.70;99.90;;;;;;5039505;28;20072;-69
2023/12/25 06:52:22;;;;;;;17.25;10.38;;;0.70;99.90;;;;;;5035487;28;20119;-70
2023/12/25 06:54:48;;;;;;;18.25;9.60;;;0.70;99.90;;;;;;5030679;28;20049;-69
2023/12/25 06:57:14;;;;;;;19.77;10.73;;;0.70;99.90;;;;;;5040702;28;20529;-68
2023/12/25 06:59:44;;;;;;;21.08;10.90;;;0.70;99.90;;;;;;5049629;28;20037;-68
2023/12/25 07:02:10;;;;;;;22.33;9.50;;;0.70;99.90;;;;;;5036170;28;20041;-68
2023/12/25 07:04:36;;;;;;;21.20;11.07;;;0.70;99.90;;;;;;5034035;28;20046;-68
2023/12/25 07:07:02;;;;;;;;;;;0.70;99.90;;;;;;5043915;28;20033;-69
2023/12/25 07:09:28;;;;;;;20.10;9.63;;;0.60;99.90;;;;;;5037183;28;19920;-69
2023/12/25 07:11:53;;;;;;;18.50;9.93;;;0.70;99.90;;;;;;5035776;28;20584;-69
2023/12/25 07:14:19;;;;;;;14.93;9.07;;;0.70;99.90;;;;;;5037981;28;20035;-69
2023/12/25 07:16:45;;;;;;;21.52;9.75;;;0.70;99.90;;;;;;5037804;28;20032;-70
2023/12/25 07:19:10;;;;;;;18.43;9.73;;;0.70;99.90;;;;;;5036314;28;20508;-68
2023/12/25 07:21:36;;;;;;;16.00;8.97;;;0.70;99.90;;;;;;5031204;28;20276;-72
2023/12/25 07:24:02;;;;;;;18.48;9.60;;;0.70;99.90;;;;;;5034840;28;20022;-70
2023/12/25 07:26:28;;;;;;;21.48;9.57;;;0.70;99.90;;;;;;5036210;28;20045;-68
2023/12/25 07:28:58;;;;;;;14.80;8.60;;;0.70;99.90;;;;;;5041436;28;20021;-69
2023/12/25 07:31:24;;;;;;;15.82;8.98;;;0.70;99.90;;;;;;5037063;28;20071;-71
2023/12/25 07:33:53;;;;;;;15.02;8.00;;;0.80;99.90;;;;;;5037895;28;20057;-72
2023/12/25 07:36:19;;;;;;;13.57;7.70;;;0.80;99.90;;;;;;5040049;28;20086;-70
2023/12/25 07:38:45;;;;;;;14.25;8.48;;;1.00;99.90;;;;;;5039420;28;20029;-71
2023/12/25 07:41:11;;;;;;;15.75;7.88;;;1.00;99.90;;;;;;5041715;28;20492;-73
2023/12/25 07:43:37;;;;;;;15.88;8.10;;;1.00;99.90;;;;;;5034355;28;20398;-72
2023/12/25 07:46:07;;;;;;;;;;;1.00;99.90;;;;;;5037923;28;20607;-70
2023/12/25 07:48:34;;;;;;;16.33;8.07;;;0.90;99.90;;;;;;5035563;28;19913;-73
2023/12/25 07:50:59;;;;;;;15.43;8.07;;;1.00;99.90;;;;;;5037727;28;20029;-72
2023/12/25 07:53:25;;;;;;;14.10;7.60;;;1.00;99.90;;;;;;5041137;28;20102;-72
2023/12/25 07:55:51;;;;;;;14.90;7.30;;;1.00;99.90;;;;;;5038589;28;20504;-73
2023/12/25 07:58:16;;;;;;;12.55;6.88;;;1.10;99.90;;;;;;5041337;28;20448;-74
2023/12/25 08:00:42;;;;;;;11.88;7.30;;;1.10;99.90;;;;;;5034910;28;20041;-73
2023/12/25 08:03:10;;;;;;;20.10;6.45;;;1.50;99.90;;;;;;5040896;28;20535;-73
2023/12/25 08:05:36;;;;;;;12.93;6.80;;;1.70;99.90;;;;;;5036229;28;20359;-70
2023/12/25 08:08:01;;;;;;;17.93;6.57;;;1.70;99.90;;;;;;5054241;28;20481;-70
2023/12/25 08:10:28;;;;;;;13.27;7.22;;;1.90;99.90;;;;;;5038227;28;20283;-69
2023/12/25 08:12:54;;;;;;;14.05;6.47;;;2.00;99.90;;;;;;5033591;28;20030;-71
2023/12/25 08:15:20;;;;;;;15.45;6.80;;;2.30;99.90;;;;;;5042631;28;20037;-71
2023/12/25 08:17:45;;;;;;;13.77;7.33;;;2.40;99.90;;;;;;5040125;28;20045;-68
2023/12/25 08:20:11;;;;;;;12.40;6.50;;;2.60;99.90;;;;;;5038502;28;20508;-68
2023/12/25 08:22:37;;;;;;;11.82;6.40;;;2.70;99.90;;;;;;5068807;28;20286;-68
2023/12/25 08:25:03;;;;;;;11.77;6.88;;;2.80;99.90;;;;;;5039915;28;20064;-68
2023/12/25 08:27:29;;;;;;;15.85;7.05;;;2.80;99.90;;;;;;5038863;28;20033;-67
2023/12/25 08:29:55;;;;;;;16.63;7.18;;;2.80;99.90;;;;;;5037975;28;20032;-70
2023/12/25 08:32:21;;;;;;;;;;;2.80;99.90;;;;;;5040263;28;20033;-69
2023/12/25 08:34:47;;;;;;;19.58;6.20;;;2.90;99.90;;;;;;5051093;28;20278;-69
2023/12/25 08:37:13;;;;;;;12.68;7.60;;;2.90;99.90;;;;;;5036120;28;20022;-70
2023/12/25 08:39:38;;;;;;;11.43;6.40;;;2.80;99.90;;;;;;5052409;28;20045;-71
2023/12/25 08:42:04;;;;;;;11.77;6.63;;;2.70;99.90;;;;;;5047486;28;20033;-71
2023/12/25 08:44:32;;;;;;;17.83;8.55;;;2.70;99.90;;;;;;5042975;28;20287;-72
2023/12/25 08:46:58;;;;;;;18.38;10.15;;;2.80;99.90;;;;;;5041767;28;20394;-70
2023/12/25 08:49:24;;;;;;;20.13;10.98;;;3.20;99.90;;;;;;5034334;28;20040;-70
2023/12/25 08:51:50;;;;;;;23.95;11.27;;;5.80;99.90;;;;;;5038866;28;20815;-70
2023/12/25 08:54:16;;;;;;;21.33;11.80;;;8.30;99.90;;;;;;5039737;28;20033;-69
2023/12/25 08:56:42;;;;;;;26.52;12.57;;;9.30;95.70;;;;;;5043953;28;20429;-69
2023/12/25 08:59:09;;;;;;;24.50;11.27;;;7.00;99.90;;;;;;5035879;28;20033;-70
2023/12/25 09:01:35;;;;;;;19.17;10.65;;;5.60;99.90;;;;;;5031369;28;20130;-69
2023/12/25 09:04:00;;;;;;;26.02;9.77;;;4.90;99.90;;;;;;5039742;28;20036;-70
2023/12/25 09:06:26;;;;;;;19.65;10.20;;;4.60;99.90;;;;;;5039170;28;20135;-71
2023/12/25 09:08:52;;;;;;;20.63;10.15;;;4.60;99.90;;;;;;5037001;28;20075;-70
2023/12/25 09:11:18;;;;;;;17.88;10.05;;;4.60;99.90;;;;;;5040804;28;20132;-69
2023/12/25 09:13:44;;;;;;;18.65;9.98;;;4.50;99.90;;;;;;5040004;28;20489;-71
2023/12/25 09:16:10;;;;;;;20.15;10.10;;;4.40;99.90;;;;;;5037031;28;20049;-70
2023/12/25 09:18:36;;;;;;;17.35;9.85;;;4.30;99.90;;;;;;5032068;28;20035;-69
2023/12/25 09:21:02;;;;;;;18.55;9.45;;;4.10;99.90;;;;;;5038422;28;20643;-68
2023/12/25 09:23:28;;;;;;;16.17;9.90;;;4.00;99.90;;;;;;5035530;28;20052;-68
2023/12/25 09:25:54;;;;;;;17.95;9.85;;;4.10;99.90;;;;;;5038796;28;20044;-68
2023/12/25 09:28:21;;;;;;;19.88;10.40;;;4.00;99.90;;;;;;5042837;28;20393;-69
2023/12/25 09:30:46;;;;;;;14.88;8.68;;;4.00;99.90;;;;;;5043818;28;20040;-69
2023/12/25 09:33:12;;;;;;;16.20;8.73;;;4.10;99.90;;;;;;5036626;28;20029;-70
2023/12/25 09:35:38;;;;;;;17.20;9.93;;;4.10;99.90;;;;;;5038892;28;20052;-70
2023/12/25 09:38:04;;;;;;;16.98;9.05;;;4.20;99.90;;;;;;5040925;28;20029;-69
2023/12/25 09:40:31;;;;;;;21.08;9.02;;;4.30;99.90;;;;;;5042009;28;20120;-70
2023/12/25 09:42:58;;;;;;;15.63;8.88;;;4.20;99.90;;;;;;5035999;28;20537;-70
2023/12/25 09:45:26;;;;;;;16.40;9.00;;;4.20;99.90;;;;;;5036730;28;20094;-70
2023/12/25 09:47:52;;;;;;;19.13;9.27;;;4.20;99.90;;;;;;5036361;28;20390;-69
2023/12/25 09:50:21;;;;;;;18.35;9.88;;;4.20;99.90;;;;;;5040284;28;20078;-70
2023/12/25 09:52:47;;;;;;;15.15;9.18;;;4.20;99.90;;;;;;5035810;28;20045;-69
2023/12/25 09:55:13;;;;;;;19.35;10.75;;;4.20;99.90;;;;;;5035489;28;20071;-69
2023/12/25 09:57:40;;;;;;;20.92;11.70;;;4.20;99.90;;;;;;5035544;28;20092;-70
2023/12/25 10:00:08;;;;;;;25.27;12.82;;;4.20;99.90;;;;;;5038100;28;20029;-72
2023/12/25 10:02:44;;;;;;;23.85;13.30;;;4.20;99.90;;;;;;5037011;28;20509;-69
2023/12/25 10:05:10;;;;;;;22.80;12.57;;;4.20;99.90;;;;;;5038637;28;20053;-69
2023/12/25 10:07:36;;;;;;;26.08;13.02;;;4.30;99.90;;;;;;5039349;28;20049;-69
2023/12/25 10:10:02;;;;;;;24.63;12.27;;;4.30;99.90;;;;;;5036739;28;20045;-69
2023/12/25 10:12:28;;;;;;;17.63;11.00;;;4.30;99.90;;;;;;5035573;28;20041;-69
2023/12/25 10:14:54;;;;;;;21.73;12.00;;;4.30;99.90;;;;;;5035859;28;20033;-69
2023/12/25 10:17:19;;;;;;;18.70;10.98;;;4.30;99.90;;;;;;5037898;28;20556;-69
2023/12/25 10:19:54;;;;;;;17.48;10.70;;;4.30;99.90;;;;;;5034687;28;20029;-69
2023/12/25 10:22:40;;;;;;;18.10;11.18;;;4.30;99.90;;;;;;5033597;28;20029;-71
2023/12/25 10:25:10;;;;;;;17.98;10.88;;;4.40;99.90;;;;;;5031189;28;20040;-71
2023/12/25 10:27:40;;;;;;;22.48;11.40;;;4.40;99.90;;;;;;5044431;28;20021;-70
2023/12/25 10:30:24;;;;;;;21.73;11.10;;;4.40;99.90;;;;;;5036641;28;20036;-73
2023/12/25 10:33:09;;;;;;;21.35;11.07;;;4.30;99.90;;;;;;5037612;28;20497;-71
2023/12/25 10:35:35;;;;;;;22.13;10.93;;;4.40;99.90;;;;;;5034870;28;20497;-70
2023/12/25 10:38:03;;;;;;;;;;;4.50;99.90;;;;;;5029696;28;20370;-70
2023/12/25 10:40:31;;;;;;;18.98;10.32;;;4.50;99.90;;;;;;5040006;28;20349;-69
2023/12/25 10:42:57;;;;;;;16.35;11.23;;;4.50;99.90;;;;;;5041842;28;20393;-69
2023/12/25 10:45:24;;;;;;;21.08;11.82;;;4.50;99.90;;;;;;5036016;28;20038;-73
2023/12/25 10:47:52;;;;;;;18.65;10.55;;;4.50;99.90;;;;;;5034750;28;20025;-73
2023/12/25 10:50:23;;;;;;;23.58;11.65;;;4.50;99.90;;;;;;5038703;28;20033;-71
2023/12/25 10:52:52;;;;;;;21.40;11.65;;;4.60;99.90;;;;;;5036541;28;20084;-71
2023/12/25 10:55:52;;;;;;;16.83;10.38;;;4.70;99.90;;;;;;5039742;28;20479;-69
2023/12/25 10:58:19;;;;;;;19.42;10.75;;;4.70;99.90;;;;;;5034941;28;20489;-70
2023/12/25 11:00:56;;;;;;;20.42;11.25;;;4.70;99.90;;;;;;5044061;28;20044;-70
2023/12/25 11:03:22;;;;;;;18.70;10.68;;;4.70;99.90;;;;;;5041967;28;20081;-71
2023/12/25 11:05:48;;;;;;;20.92;10.93;;;4.80;99.90;;;;;;5036228;28;20154;-72
2023/12/25 11:08:17;;;;;;;23.75;11.85;;;4.80;99.90;;;;;;5036538;28;20466;-72
2023/12/25 11:10:43;;;;;;;21.27;11.73;;;4.80;99.90;;;;;;5037542;28;20040;-71
2023/12/25 11:13:09;;;;;;;22.00;11.95;;;4.80;99.90;;;;;;5034065;28;20047;-72
2023/12/25 11:15:35;;;;;;;22.65;12.40;;;5.00;99.90;;;;;;5037559;28;20751;-70
2023/12/25 11:18:01;;;;;;;16.50;10.60;;;5.00;99.90;;;;;;5044607;28;20064;-71
2023/12/25 11:20:29;;;;;;;18.95;10.07;;;5.10;99.90;;;;;;5041767;28;20037;-67
2023/12/25 11:22:57;;;;;;;22.40;11.20;;;5.10;99.90;;;;;;5028680;28;20025;-69
2023/12/25 11:25:23;;;;;;;29.38;13.57;;;5.10;99.90;;;;;;5031243;28;20053;-68
2023/12/25 11:27:53;;;;;;;20.90;11.95;;;5.20;99.90;;;;;;5029409;28;20026;-66
2023/12/25 11:30:21;;;;;;;21.73;13.02;;;5.30;99.90;;;;;;5044765;28;20385;-68
2023/12/25 11:32:49;;;;;;;23.02;12.68;;;5.30;99.90;;;;;;5034824;28;21639;-69
2023/12/25 11:35:15;;;;;;;19.23;11.55;;;5.20;99.90;;;;;;5036829;28;20033;-69
2023/12/25 11:37:41;;;;;;;20.88;11.60;;;5.30;99.90;;;;;;5033699;28;20025;-67
2023/12/25 11:40:08;;;;;;;16.17;9.70;;;5.40;99.90;;;;;;5036567;28;20074;-69
2023/12/25 11:42:37;;;;;;;17.58;10.60;;;5.50;99.90;;;;;;5042063;28;20044;-73
2023/12/25 11:45:07;;;;;;;17.35;10.48;;;5.40;99.90;;;;;;5040104;28;20040;-71
2023/12/25 11:47:39;;;;;;;16.55;9.70;;;5.60;99.90;;;;;;5042781;28;20032;-71
2023/12/25 11:50:10;;;;;;;17.70;8.73;;;5.70;99.90;;;;;;5032437;28;20038;-69
2023/12/25 11:52:53;;;;;;;14.00;8.30;;;5.70;99.90;;;;;;5039177;28;20056;-70
2023/12/25 11:55:20;;;;;;;12.35;7.57;;;5.70;99.90;;;;;;5035451;28;20034;-68
2023/12/25 11:57:46;;;;;;;16.38;8.15;;;5.90;99.90;;;;;;5026064;28;20032;-69
2023/12/25 12:00:31;;;;;;;15.68;8.15;;;5.80;99.90;;;;;;5032784;28;20116;-70
2023/12/25 12:02:57;;;;;;;16.83;8.18;;;5.80;99.90;;;;;;5048738;28;20445;-67
2023/12/25 12:05:22;;;;;;;18.02;7.20;;;5.80;99.90;;;;;;5044449;28;20192;-71
2023/12/25 12:07:48;;;;;;;16.03;8.47;;;5.80;99.90;;;;;;5041847;28;20079;-68
2023/12/25 12:10:14;;;;;;;14.55;8.75;;;5.80;99.90;;;;;;5036888;28;20037;-68
2023/12/25 12:12:41;;;;;;;14.57;8.80;;;5.90;99.90;;;;;;5038492;28;20087;-69
2023/12/25 12:15:08;;;;;;;16.33;9.10;;;6.00;99.90;;;;;;5055515;28;20029;-68
2023/12/25 12:17:36;;;;;;;21.58;9.23;;;6.00;99.90;;;;;;5040340;28;20555;-69
2023/12/25 12:20:03;;;;;;;17.90;9.88;;;6.00;99.90;;;;;;5039008;28;20033;-67
2023/12/25 12:22:29;;;;;;;16.80;8.52;;;6.10;99.90;;;;;;5039739;28;20029;-68
2023/12/25 12:25:11;;;;;;;15.53;9.03;;;6.20;99.90;;;;;;5032893;28;20386;-68
2023/12/25 12:27:37;;;;;;;16.70;9.32;;;6.30;99.90;;;;;;5042455;28;20025;-68
2023/12/25 12:30:03;;;;;;;17.97;9.13;;;6.40;99.90;;;;;;5049916;28;20039;-68
2023/12/25 12:32:29;;;;;;;19.50;9.18;;;6.60;99.90;;;;;;5049442;28;20029;-74
2023/12/25 12:34:54;;;;;;;18.97;9.37;;;6.60;99.90;;;;;;5043427;28;20519;-70
2023/12/25 12:37:20;;;;;;;15.97;9.00;;;6.50;99.90;;;;;;5043675;28;20029;-74
2023/12/25 12:39:46;;;;;;;17.42;8.75;;;6.60;99.90;;;;;;5045632;28;20036;-69
2023/12/25 12:42:11;;;;;;;15.13;9.17;;;6.80;99.90;;;;;;5052598;28;20493;-72